< < Back
Terminal Aerodrome Forecast


Current Version              Previous Versions:   1  2  3  4  5  6  7  8  9  

Terminal Aerodrome Forecast

237
FTUS44 KOHX 261100
TAFCSV
TAF
KCSV 261124Z 2612/2712 30010G20KT 6SM -FZDZSNPL OVC006
     FM261800 32008G16KT P6SM OVC015
     FM262000 30007KT P6SM OVC025
     FM270200 VRB03KT P6SM -SN SCT007 OVC011
      TEMPO 2708/2712 4SM -SN BR BKN007 OVC011=

Latest METAR

188
SAUS70 KWBC 261200 RRS
MTRCSV
METAR KCSV 261153Z AUTO 30012G17KT 5SM BR OVC006 02/01 A2975 RMK AO2
UPE01 CIG 004V009 SLP077 P0000 60010 70023 T00220006 10044
20022 53019


USA.gov is the U.S. government's official web portal to all federal, state and local government web resources and services.